sensor_id;sensor_type;location;lat;lon;timestamp;P1;durP1;ratioP1;P2;durP2;ratioP2
64601;SDS011;68371;42.630;23.192;2023-05-07T00:02:05;10.85;;;4.85;;
64601;SDS011;68371;42.630;23.192;2023-05-07T00:04:33;8.93;;;4.57;;
64601;SDS011;68371;42.630;23.192;2023-05-07T00:07:02;9.57;;;5.22;;
64601;SDS011;68371;42.630;23.192;2023-05-07T00:09:30;10.10;;;4.55;;
64601;SDS011;68371;42.630;23.192;2023-05-07T00:11:57;8.13;;;4.65;;
64601;SDS011;68371;42.630;23.192;2023-05-07T00:14:24;10.35;;;4.85;;
64601;SDS011;68371;42.630;23.192;2023-05-07T00:16:50;13.20;;;4.82;;
64601;SDS011;68371;42.630;23.192;2023-05-07T00:19:17;6.47;;;4.07;;
64601;SDS011;68371;42.630;23.192;2023-05-07T00:21:44;9.43;;;4.93;;
64601;SDS011;68371;42.630;23.192;2023-05-07T00:24:10;8.02;;;4.50;;
64601;SDS011;68371;42.630;23.192;2023-05-07T00:26:38;6.80;;;4.35;;
64601;SDS011;68371;42.630;23.192;2023-05-07T00:29:06;8.98;;;5.03;;
64601;SDS011;68371;42.630;23.192;2023-05-07T00:31:33;9.38;;;5.43;;
64601;SDS011;68371;42.630;23.192;2023-05-07T00:34:00;10.85;;;5.88;;
64601;SDS011;68371;42.630;23.192;2023-05-07T00:36:27;11.23;;;5.68;;
64601;SDS011;68371;42.630;23.192;2023-05-07T00:38:54;9.32;;;5.47;;
64601;SDS011;68371;42.630;23.192;2023-05-07T00:41:23;7.28;;;4.75;;
64601;SDS011;68371;42.630;23.192;2023-05-07T00:43:51;11.40;;;4.68;;
64601;SDS011;68371;42.630;23.192;2023-05-07T00:46:18;13.75;;;5.05;;
64601;SDS011;68371;42.630;23.192;2023-05-07T00:48:47;13.00;;;5.03;;
64601;SDS011;68371;42.630;23.192;2023-05-07T00:51:14;10.30;;;4.70;;
64601;SDS011;68371;42.630;23.192;2023-05-07T00:53:41;10.52;;;4.75;;
64601;SDS011;68371;42.630;23.192;2023-05-07T00:56:08;12.07;;;5.07;;
64601;SDS011;68371;42.630;23.192;2023-05-07T00:58:36;7.88;;;5.20;;
64601;SDS011;68371;42.630;23.192;2023-05-07T01:01:05;8.15;;;4.88;;
64601;SDS011;68371;42.630;23.192;2023-05-07T01:03:32;14.75;;;4.97;;
64601;SDS011;68371;42.630;23.192;2023-05-07T01:05:59;7.78;;;5.00;;
64601;SDS011;68371;42.630;23.192;2023-05-07T01:08:27;9.95;;;5.35;;
64601;SDS011;68371;42.630;23.192;2023-05-07T01:10:55;10.02;;;5.53;;
64601;SDS011;68371;42.630;23.192;2023-05-07T01:13:23;12.55;;;6.30;;
64601;SDS011;68371;42.630;23.192;2023-05-07T01:15:50;10.23;;;5.53;;
64601;SDS011;68371;42.630;23.192;2023-05-07T01:18:18;11.38;;;5.60;;
64601;SDS011;68371;42.630;23.192;2023-05-07T01:20:45;12.32;;;5.45;;
64601;SDS011;68371;42.630;23.192;2023-05-07T01:23:13;14.75;;;6.28;;
64601;SDS011;68371;42.630;23.192;2023-05-07T01:25:41;10.48;;;5.85;;
64601;SDS011;68371;42.630;23.192;2023-05-07T01:28:08;12.05;;;5.38;;
64601;SDS011;68371;42.630;23.192;2023-05-07T01:30:35;9.10;;;5.70;;
64601;SDS011;68371;42.630;23.192;2023-05-07T01:33:10;8.45;;;5.07;;
64601;SDS011;68371;42.630;23.192;2023-05-07T01:35:40;8.07;;;5.23;;
64601;SDS011;68371;42.630;23.192;2023-05-07T01:38:10;8.85;;;5.50;;
64601;SDS011;68371;42.630;23.192;2023-05-07T01:40:39;10.88;;;5.88;;
64601;SDS011;68371;42.630;23.192;2023-05-07T01:43:06;9.55;;;5.43;;
64601;SDS011;68371;42.630;23.192;2023-05-07T01:45:33;8.63;;;5.03;;
64601;SDS011;68371;42.630;23.192;2023-05-07T01:48:01;9.32;;;5.53;;
64601;SDS011;68371;42.630;23.192;2023-05-07T01:50:28;12.90;;;5.82;;
64601;SDS011;68371;42.630;23.192;2023-05-07T01:52:56;9.88;;;5.38;;
64601;SDS011;68371;42.630;23.192;2023-05-07T01:55:23;11.02;;;6.05;;
64601;SDS011;68371;42.630;23.192;2023-05-07T01:57:51;8.60;;;5.85;;
64601;SDS011;68371;42.630;23.192;2023-05-07T02:00:21;13.48;;;5.53;;
64601;SDS011;68371;42.630;23.192;2023-05-07T02:02:48;8.50;;;4.70;;
64601;SDS011;68371;42.630;23.192;2023-05-07T02:05:15;7.75;;;4.82;;
64601;SDS011;68371;42.630;23.192;2023-05-07T02:07:42;10.35;;;5.05;;
64601;SDS011;68371;42.630;23.192;2023-05-07T02:10:09;6.50;;;4.35;;
64601;SDS011;68371;42.630;23.192;2023-05-07T02:12:36;7.45;;;4.85;;
64601;SDS011;68371;42.630;23.192;2023-05-07T02:15:04;10.52;;;4.53;;
64601;SDS011;68371;42.630;23.192;2023-05-07T02:17:31;9.10;;;5.05;;
64601;SDS011;68371;42.630;23.192;2023-05-07T02:19:58;9.70;;;5.82;;
64601;SDS011;68371;42.630;23.192;2023-05-07T02:22:25;8.77;;;5.45;;
64601;SDS011;68371;42.630;23.192;2023-05-07T02:24:51;10.50;;;5.20;;
64601;SDS011;68371;42.630;23.192;2023-05-07T02:27:18;8.77;;;5.35;;
64601;SDS011;68371;42.630;23.192;2023-05-07T02:29:45;9.38;;;5.13;;
64601;SDS011;68371;42.630;23.192;2023-05-07T02:32:14;9.75;;;4.93;;
64601;SDS011;68371;42.630;23.192;2023-05-07T02:34:42;11.48;;;4.55;;
64601;SDS011;68371;42.630;23.192;2023-05-07T02:37:09;9.57;;;5.13;;
64601;SDS011;68371;42.630;23.192;2023-05-07T02:39:35;8.98;;;4.78;;
64601;SDS011;68371;42.630;23.192;2023-05-07T02:42:02;7.90;;;4.68;;
64601;SDS011;68371;42.630;23.192;2023-05-07T02:44:29;11.60;;;4.70;;
64601;SDS011;68371;42.630;23.192;2023-05-07T02:46:56;9.07;;;5.35;;
64601;SDS011;68371;42.630;23.192;2023-05-07T02:49:24;10.82;;;5.13;;
64601;SDS011;68371;42.630;23.192;2023-05-07T02:51:51;8.40;;;4.93;;
64601;SDS011;68371;42.630;23.192;2023-05-07T02:54:18;8.75;;;4.45;;
64601;SDS011;68371;42.630;23.192;2023-05-07T02:56:44;7.40;;;4.88;;
64601;SDS011;68371;42.630;23.192;2023-05-07T02:59:11;10.43;;;5.22;;
64601;SDS011;68371;42.630;23.192;2023-05-07T03:01:37;7.03;;;4.50;;
64601;SDS011;68371;42.630;23.192;2023-05-07T03:04:04;7.95;;;4.50;;
64601;SDS011;68371;42.630;23.192;2023-05-07T03:06:32;10.05;;;4.85;;
64601;SDS011;68371;42.630;23.192;2023-05-07T03:08:59;9.60;;;4.82;;
64601;SDS011;68371;42.630;23.192;2023-05-07T03:11:25;14.32;;;6.50;;
64601;SDS011;68371;42.630;23.192;2023-05-07T03:13:52;16.08;;;6.35;;
64601;SDS011;68371;42.630;23.192;2023-05-07T03:16:19;14.00;;;6.65;;
64601;SDS011;68371;42.630;23.192;2023-05-07T03:18:45;15.95;;;5.50;;
64601;SDS011;68371;42.630;23.192;2023-05-07T03:21:12;14.10;;;5.90;;
64601;SDS011;68371;42.630;23.192;2023-05-07T03:23:40;13.57;;;5.60;;
64601;SDS011;68371;42.630;23.192;2023-05-07T03:26:07;8.60;;;5.20;;
64601;SDS011;68371;42.630;23.192;2023-05-07T03:28:33;9.32;;;5.43;;
64601;SDS011;68371;42.630;23.192;2023-05-07T03:31:00;10.60;;;5.70;;
64601;SDS011;68371;42.630;23.192;2023-05-07T03:33:27;12.48;;;5.40;;
64601;SDS011;68371;42.630;23.192;2023-05-07T03:35:54;8.82;;;5.00;;
64601;SDS011;68371;42.630;23.192;2023-05-07T03:38:20;10.50;;;6.00;;
64601;SDS011;68371;42.630;23.192;2023-05-07T03:40:48;10.20;;;5.85;;
64601;SDS011;68371;42.630;23.192;2023-05-07T03:43:15;12.20;;;5.88;;
64601;SDS011;68371;42.630;23.192;2023-05-07T03:45:42;10.45;;;5.93;;
64601;SDS011;68371;42.630;23.192;2023-05-07T03:48:09;12.45;;;5.15;;
64601;SDS011;68371;42.630;23.192;2023-05-07T03:50:35;11.50;;;4.68;;
64601;SDS011;68371;42.630;23.192;2023-05-07T03:53:02;10.95;;;5.10;;
64601;SDS011;68371;42.630;23.192;2023-05-07T03:55:29;13.23;;;6.15;;
64601;SDS011;68371;42.630;23.192;2023-05-07T03:57:57;13.52;;;6.28;;
64601;SDS011;68371;42.630;23.192;2023-05-07T04:00:23;10.63;;;5.55;;
64601;SDS011;68371;42.630;23.192;2023-05-07T04:02:51;12.30;;;6.72;;
64601;SDS011;68371;42.630;23.192;2023-05-07T04:05:18;11.05;;;5.35;;
64601;SDS011;68371;42.630;23.192;2023-05-07T04:07:44;10.40;;;6.32;;
64601;SDS011;68371;42.630;23.192;2023-05-07T04:10:11;46.42;;;25.67;;
64601;SDS011;68371;42.630;23.192;2023-05-07T04:12:38;19.63;;;11.45;;
64601;SDS011;68371;42.630;23.192;2023-05-07T04:15:07;21.27;;;9.15;;
64601;SDS011;68371;42.630;23.192;2023-05-07T04:17:34;15.35;;;8.45;;
64601;SDS011;68371;42.630;23.192;2023-05-07T04:20:00;15.13;;;7.95;;
64601;SDS011;68371;42.630;23.192;2023-05-07T04:22:27;12.90;;;7.20;;
64601;SDS011;68371;42.630;23.192;2023-05-07T04:24:54;13.55;;;7.82;;
64601;SDS011;68371;42.630;23.192;2023-05-07T04:27:21;14.27;;;7.32;;
64601;SDS011;68371;42.630;23.192;2023-05-07T04:29:49;12.95;;;7.88;;
64601;SDS011;68371;42.630;23.192;2023-05-07T04:32:18;12.73;;;7.22;;
64601;SDS011;68371;42.630;23.192;2023-05-07T04:34:44;14.75;;;7.88;;
64601;SDS011;68371;42.630;23.192;2023-05-07T04:37:11;15.32;;;7.78;;
64601;SDS011;68371;42.630;23.192;2023-05-07T04:39:38;14.82;;;7.40;;
64601;SDS011;68371;42.630;23.192;2023-05-07T04:42:05;16.33;;;8.18;;
64601;SDS011;68371;42.630;23.192;2023-05-07T04:44:34;16.30;;;7.78;;
64601;SDS011;68371;42.630;23.192;2023-05-07T04:47:02;15.02;;;7.95;;
64601;SDS011;68371;42.630;23.192;2023-05-07T04:49:30;14.82;;;7.85;;
64601;SDS011;68371;42.630;23.192;2023-05-07T04:51:56;13.90;;;7.65;;
64601;SDS011;68371;42.630;23.192;2023-05-07T04:54:24;13.43;;;7.68;;
64601;SDS011;68371;42.630;23.192;2023-05-07T04:56:51;17.88;;;7.95;;
64601;SDS011;68371;42.630;23.192;2023-05-07T04:59:18;12.50;;;7.40;;
64601;SDS011;68371;42.630;23.192;2023-05-07T05:01:44;11.85;;;6.85;;
64601;SDS011;68371;42.630;23.192;2023-05-07T05:04:11;14.18;;;6.25;;
64601;SDS011;68371;42.630;23.192;2023-05-07T05:06:40;13.25;;;6.75;;
64601;SDS011;68371;42.630;23.192;2023-05-07T05:09:07;13.88;;;7.15;;
64601;SDS011;68371;42.630;23.192;2023-05-07T05:11:34;12.38;;;7.38;;
64601;SDS011;68371;42.630;23.192;2023-05-07T05:14:01;12.13;;;7.10;;
64601;SDS011;68371;42.630;23.192;2023-05-07T05:16:27;14.45;;;7.75;;
64601;SDS011;68371;42.630;23.192;2023-05-07T05:18:54;11.15;;;5.97;;
64601;SDS011;68371;42.630;23.192;2023-05-07T05:21:22;11.70;;;5.65;;
64601;SDS011;68371;42.630;23.192;2023-05-07T05:23:50;10.38;;;5.53;;
64601;SDS011;68371;42.630;23.192;2023-05-07T05:26:16;9.25;;;4.50;;
64601;SDS011;68371;42.630;23.192;2023-05-07T05:28:43;11.73;;;4.70;;
64601;SDS011;68371;42.630;23.192;2023-05-07T05:31:10;6.80;;;4.43;;
64601;SDS011;68371;42.630;23.192;2023-05-07T05:33:37;12.40;;;5.18;;
64601;SDS011;68371;42.630;23.192;2023-05-07T05:36:04;11.32;;;5.20;;
64601;SDS011;68371;42.630;23.192;2023-05-07T05:38:31;8.45;;;4.72;;
64601;SDS011;68371;42.630;23.192;2023-05-07T05:40:59;9.80;;;5.20;;
64601;SDS011;68371;42.630;23.192;2023-05-07T05:43:26;7.72;;;4.90;;
64601;SDS011;68371;42.630;23.192;2023-05-07T05:45:53;8.82;;;4.80;;
64601;SDS011;68371;42.630;23.192;2023-05-07T05:48:22;8.82;;;4.97;;
64601;SDS011;68371;42.630;23.192;2023-05-07T05:50:48;7.93;;;4.75;;
64601;SDS011;68371;42.630;23.192;2023-05-07T05:53:15;13.40;;;4.85;;
64601;SDS011;68371;42.630;23.192;2023-05-07T05:55:42;11.02;;;5.05;;
64601;SDS011;68371;42.630;23.192;2023-05-07T05:58:10;9.02;;;4.90;;
64601;SDS011;68371;42.630;23.192;2023-05-07T06:00:37;6.22;;;4.38;;
64601;SDS011;68371;42.630;23.192;2023-05-07T06:03:03;8.93;;;5.07;;
64601;SDS011;68371;42.630;23.192;2023-05-07T06:05:30;7.70;;;4.68;;
64601;SDS011;68371;42.630;23.192;2023-05-07T06:07:58;9.90;;;4.30;;
64601;SDS011;68371;42.630;23.192;2023-05-07T06:10:24;6.72;;;4.28;;
64601;SDS011;68371;42.630;23.192;2023-05-07T06:12:52;8.73;;;4.38;;
64601;SDS011;68371;42.630;23.192;2023-05-07T06:15:20;5.32;;;4.00;;
64601;SDS011;68371;42.630;23.192;2023-05-07T06:17:47;6.60;;;4.18;;
64601;SDS011;68371;42.630;23.192;2023-05-07T06:20:14;9.52;;;4.15;;
64601;SDS011;68371;42.630;23.192;2023-05-07T06:22:41;6.85;;;4.13;;
64601;SDS011;68371;42.630;23.192;2023-05-07T06:25:08;5.93;;;3.90;;
64601;SDS011;68371;42.630;23.192;2023-05-07T06:27:35;8.15;;;4.57;;
64601;SDS011;68371;42.630;23.192;2023-05-07T06:30:02;8.63;;;3.80;;
64601;SDS011;68371;42.630;23.192;2023-05-07T06:32:30;8.35;;;3.80;;
64601;SDS011;68371;42.630;23.192;2023-05-07T06:34:57;5.88;;;3.70;;
64601;SDS011;68371;42.630;23.192;2023-05-07T06:37:24;7.55;;;3.95;;
64601;SDS011;68371;42.630;23.192;2023-05-07T06:39:51;7.85;;;4.22;;
64601;SDS011;68371;42.630;23.192;2023-05-07T06:42:18;6.07;;;4.20;;
64601;SDS011;68371;42.630;23.192;2023-05-07T06:44:45;6.07;;;3.92;;
64601;SDS011;68371;42.630;23.192;2023-05-07T06:47:11;7.35;;;3.88;;
64601;SDS011;68371;42.630;23.192;2023-05-07T06:49:39;4.88;;;3.20;;
64601;SDS011;68371;42.630;23.192;2023-05-07T06:52:06;6.22;;;3.97;;
64601;SDS011;68371;42.630;23.192;2023-05-07T06:54:33;7.90;;;3.50;;
64601;SDS011;68371;42.630;23.192;2023-05-07T06:57:00;8.10;;;3.83;;
64601;SDS011;68371;42.630;23.192;2023-05-07T06:59:27;5.03;;;3.75;;
64601;SDS011;68371;42.630;23.192;2023-05-07T07:01:53;5.80;;;3.72;;
64601;SDS011;68371;42.630;23.192;2023-05-07T07:04:20;8.38;;;4.10;;
64601;SDS011;68371;42.630;23.192;2023-05-07T07:06:50;8.52;;;4.20;;
64601;SDS011;68371;42.630;23.192;2023-05-07T07:09:18;8.30;;;4.30;;
64601;SDS011;68371;42.630;23.192;2023-05-07T07:11:44;10.00;;;4.70;;
64601;SDS011;68371;42.630;23.192;2023-05-07T07:14:11;9.50;;;4.40;;
64601;SDS011;68371;42.630;23.192;2023-05-07T07:16:38;5.85;;;4.07;;
64601;SDS011;68371;42.630;23.192;2023-05-07T07:19:05;6.82;;;4.57;;
64601;SDS011;68371;42.630;23.192;2023-05-07T07:21:31;9.63;;;4.43;;
64601;SDS011;68371;42.630;23.192;2023-05-07T07:24:00;6.65;;;4.45;;
64601;SDS011;68371;42.630;23.192;2023-05-07T07:26:27;5.20;;;4.07;;
64601;SDS011;68371;42.630;23.192;2023-05-07T07:28:53;9.18;;;4.82;;
64601;SDS011;68371;42.630;23.192;2023-05-07T07:31:20;8.50;;;4.80;;
64601;SDS011;68371;42.630;23.192;2023-05-07T07:33:47;7.78;;;4.70;;
64601;SDS011;68371;42.630;23.192;2023-05-07T07:36:15;5.50;;;3.70;;
64601;SDS011;68371;42.630;23.192;2023-05-07T07:38:42;9.50;;;4.47;;
64601;SDS011;68371;42.630;23.192;2023-05-07T07:41:10;6.43;;;3.67;;
64601;SDS011;68371;42.630;23.192;2023-05-07T07:43:36;5.82;;;4.00;;
64601;SDS011;68371;42.630;23.192;2023-05-07T07:46:03;5.63;;;3.90;;
64601;SDS011;68371;42.630;23.192;2023-05-07T07:48:30;9.68;;;3.78;;
64601;SDS011;68371;42.630;23.192;2023-05-07T07:50:57;6.78;;;3.67;;
64601;SDS011;68371;42.630;23.192;2023-05-07T07:53:23;5.05;;;3.50;;
64601;SDS011;68371;42.630;23.192;2023-05-07T07:55:50;5.82;;;3.92;;
64601;SDS011;68371;42.630;23.192;2023-05-07T07:58:18;6.10;;;3.55;;
64601;SDS011;68371;42.630;23.192;2023-05-07T08:00:45;5.50;;;3.55;;
64601;SDS011;68371;42.630;23.192;2023-05-07T08:03:12;7.55;;;4.18;;
64601;SDS011;68371;42.630;23.192;2023-05-07T08:05:39;8.82;;;4.65;;
64601;SDS011;68371;42.630;23.192;2023-05-07T08:08:06;6.47;;;4.30;;
64601;SDS011;68371;42.630;23.192;2023-05-07T08:10:32;7.60;;;4.35;;
64601;SDS011;68371;42.630;23.192;2023-05-07T08:13:03;5.97;;;4.07;;
64601;SDS011;68371;42.630;23.192;2023-05-07T08:15:32;6.40;;;3.80;;
64601;SDS011;68371;42.630;23.192;2023-05-07T08:18:00;8.35;;;4.65;;
64601;SDS011;68371;42.630;23.192;2023-05-07T08:20:28;7.45;;;4.82;;
64601;SDS011;68371;42.630;23.192;2023-05-07T08:22:55;8.07;;;3.95;;
64601;SDS011;68371;42.630;23.192;2023-05-07T08:25:21;5.30;;;3.80;;
64601;SDS011;68371;42.630;23.192;2023-05-07T08:27:48;5.43;;;4.10;;
64601;SDS011;68371;42.630;23.192;2023-05-07T08:30:15;6.63;;;4.20;;
64601;SDS011;68371;42.630;23.192;2023-05-07T08:32:43;6.70;;;4.32;;
64601;SDS011;68371;42.630;23.192;2023-05-07T08:35:10;5.85;;;3.83;;
64601;SDS011;68371;42.630;23.192;2023-05-07T08:37:36;5.65;;;3.70;;
64601;SDS011;68371;42.630;23.192;2023-05-07T08:40:03;6.03;;;3.83;;
64601;SDS011;68371;42.630;23.192;2023-05-07T08:42:32;5.40;;;3.20;;
64601;SDS011;68371;42.630;23.192;2023-05-07T08:45:03;5.05;;;3.40;;
64601;SDS011;68371;42.630;23.192;2023-05-07T08:47:40;9.38;;;4.45;;
64601;SDS011;68371;42.630;23.192;2023-05-07T08:50:12;7.38;;;4.30;;
64601;SDS011;68371;42.630;23.192;2023-05-07T08:52:40;6.10;;;4.03;;
64601;SDS011;68371;42.630;23.192;2023-05-07T08:55:07;12.80;;;4.13;;
64601;SDS011;68371;42.630;23.192;2023-05-07T08:57:35;6.18;;;4.00;;
64601;SDS011;68371;42.630;23.192;2023-05-07T09:00:03;6.95;;;4.45;;
64601;SDS011;68371;42.630;23.192;2023-05-07T09:02:32;5.05;;;3.65;;
64601;SDS011;68371;42.630;23.192;2023-05-07T09:05:00;8.35;;;4.75;;
64601;SDS011;68371;42.630;23.192;2023-05-07T09:07:27;5.32;;;3.90;;
64601;SDS011;68371;42.630;23.192;2023-05-07T09:09:54;8.18;;;4.10;;
64601;SDS011;68371;42.630;23.192;2023-05-07T09:12:22;5.03;;;4.32;;
64601;SDS011;68371;42.630;23.192;2023-05-07T09:14:49;8.00;;;4.00;;
64601;SDS011;68371;42.630;23.192;2023-05-07T09:17:16;13.93;;;4.28;;
64601;SDS011;68371;42.630;23.192;2023-05-07T09:19:43;7.18;;;4.50;;
64601;SDS011;68371;42.630;23.192;2023-05-07T09:22:12;17.45;;;5.20;;
64601;SDS011;68371;42.630;23.192;2023-05-07T09:24:39;9.32;;;4.22;;
64601;SDS011;68371;42.630;23.192;2023-05-07T09:27:06;9.88;;;4.18;;
64601;SDS011;68371;42.630;23.192;2023-05-07T09:29:38;7.55;;;3.80;;
64601;SDS011;68371;42.630;23.192;2023-05-07T09:32:05;10.25;;;3.75;;
64601;SDS011;68371;42.630;23.192;2023-05-07T09:34:34;5.03;;;3.60;;
64601;SDS011;68371;42.630;23.192;2023-05-07T09:37:01;4.53;;;3.47;;
64601;SDS011;68371;42.630;23.192;2023-05-07T09:39:40;7.65;;;3.70;;
64601;SDS011;68371;42.630;23.192;2023-05-07T09:42:07;5.28;;;3.22;;
64601;SDS011;68371;42.630;23.192;2023-05-07T09:44:36;5.57;;;3.55;;
64601;SDS011;68371;42.630;23.192;2023-05-07T09:47:05;5.82;;;3.78;;
64601;SDS011;68371;42.630;23.192;2023-05-07T09:49:33;6.95;;;3.75;;
64601;SDS011;68371;42.630;23.192;2023-05-07T09:52:01;5.38;;;3.70;;
64601;SDS011;68371;42.630;23.192;2023-05-07T09:54:31;5.28;;;3.53;;
64601;SDS011;68371;42.630;23.192;2023-05-07T09:57:00;5.95;;;3.70;;
64601;SDS011;68371;42.630;23.192;2023-05-07T09:59:28;5.90;;;3.30;;
64601;SDS011;68371;42.630;23.192;2023-05-07T10:01:57;8.38;;;3.88;;
64601;SDS011;68371;42.630;23.192;2023-05-07T10:04:24;6.85;;;4.00;;
64601;SDS011;68371;42.630;23.192;2023-05-07T10:06:52;6.65;;;4.00;;
64601;SDS011;68371;42.630;23.192;2023-05-07T10:09:20;6.93;;;3.95;;
64601;SDS011;68371;42.630;23.192;2023-05-07T10:11:47;9.82;;;4.38;;
64601;SDS011;68371;42.630;23.192;2023-05-07T10:14:17;6.15;;;3.30;;
64601;SDS011;68371;42.630;23.192;2023-05-07T10:16:45;8.38;;;3.47;;
64601;SDS011;68371;42.630;23.192;2023-05-07T10:19:14;6.68;;;3.35;;
64601;SDS011;68371;42.630;23.192;2023-05-07T10:21:43;7.40;;;3.30;;
64601;SDS011;68371;42.630;23.192;2023-05-07T10:24:16;7.20;;;3.58;;
64601;SDS011;68371;42.630;23.192;2023-05-07T10:26:47;5.25;;;3.28;;
64601;SDS011;68371;42.630;23.192;2023-05-07T10:29:18;6.20;;;3.22;;
64601;SDS011;68371;42.630;23.192;2023-05-07T10:31:55;5.57;;;2.92;;
64601;SDS011;68371;42.630;23.192;2023-05-07T10:34:29;4.95;;;3.10;;
64601;SDS011;68371;42.630;23.192;2023-05-07T10:37:00;6.25;;;3.30;;
64601;SDS011;68371;42.630;23.192;2023-05-07T10:39:29;5.43;;;3.05;;
64601;SDS011;68371;42.630;23.192;2023-05-07T10:41:56;7.50;;;3.10;;
64601;SDS011;68371;42.630;23.192;2023-05-07T10:44:27;3.80;;;2.92;;
64601;SDS011;68371;42.630;23.192;2023-05-07T10:47:05;4.82;;;3.40;;
64601;SDS011;68371;42.630;23.192;2023-05-07T10:49:34;4.63;;;3.13;;
64601;SDS011;68371;42.630;23.192;2023-05-07T10:52:10;5.10;;;3.33;;
64601;SDS011;68371;42.630;23.192;2023-05-07T10:54:39;6.30;;;3.15;;
64601;SDS011;68371;42.630;23.192;2023-05-07T11:00:05;5.40;;;3.00;;
64601;SDS011;68371;42.630;23.192;2023-05-07T11:03:08;3.72;;;3.03;;
64601;SDS011;68371;42.630;23.192;2023-05-07T11:05:35;5.35;;;2.90;;
64601;SDS011;68371;42.630;23.192;2023-05-07T11:08:03;8.43;;;3.15;;
64601;SDS011;68371;42.630;23.192;2023-05-07T11:10:52;3.65;;;2.83;;
64601;SDS011;68371;42.630;23.192;2023-05-07T11:16:17;8.93;;;3.00;;
64601;SDS011;68371;42.630;23.192;2023-05-07T11:18:48;5.28;;;2.92;;
64601;SDS011;68371;42.630;23.192;2023-05-07T11:21:31;4.13;;;2.78;;
64601;SDS011;68371;42.630;23.192;2023-05-07T11:23:59;8.90;;;3.05;;
64601;SDS011;68371;42.630;23.192;2023-05-07T11:26:26;4.90;;;2.95;;
64601;SDS011;68371;42.630;23.192;2023-05-07T11:28:54;4.90;;;2.85;;
64601;SDS011;68371;42.630;23.192;2023-05-07T11:31:23;4.80;;;3.15;;
64601;SDS011;68371;42.630;23.192;2023-05-07T11:33:53;11.25;;;2.97;;
64601;SDS011;68371;42.630;23.192;2023-05-07T11:36:21;3.83;;;2.72;;
64601;SDS011;68371;42.630;23.192;2023-05-07T11:38:50;6.13;;;3.17;;
64601;SDS011;68371;42.630;23.192;2023-05-07T11:41:16;5.43;;;3.10;;
64601;SDS011;68371;42.630;23.192;2023-05-07T11:43:57;3.35;;;2.70;;
64601;SDS011;68371;42.630;23.192;2023-05-07T11:46:27;3.80;;;2.80;;
64601;SDS011;68371;42.630;23.192;2023-05-07T11:48:55;12.77;;;2.85;;
64601;SDS011;68371;42.630;23.192;2023-05-07T11:51:22;3.63;;;2.83;;
64601;SDS011;68371;42.630;23.192;2023-05-07T11:53:51;6.03;;;2.70;;
64601;SDS011;68371;42.630;23.192;2023-05-07T11:56:18;5.10;;;2.75;;
64601;SDS011;68371;42.630;23.192;2023-05-07T11:58:46;3.40;;;2.67;;
64601;SDS011;68371;42.630;23.192;2023-05-07T12:01:15;9.48;;;2.80;;
64601;SDS011;68371;42.630;23.192;2023-05-07T12:03:45;11.70;;;2.90;;
64601;SDS011;68371;42.630;23.192;2023-05-07T12:06:14;3.40;;;2.45;;
64601;SDS011;68371;42.630;23.192;2023-05-07T12:08:44;3.33;;;2.40;;
64601;SDS011;68371;42.630;23.192;2023-05-07T12:11:13;4.45;;;2.80;;
64601;SDS011;68371;42.630;23.192;2023-05-07T12:13:42;5.60;;;2.58;;
64601;SDS011;68371;42.630;23.192;2023-05-07T12:16:09;4.03;;;2.60;;
64601;SDS011;68371;42.630;23.192;2023-05-07T12:18:36;4.72;;;2.47;;
64601;SDS011;68371;42.630;23.192;2023-05-07T12:21:05;3.40;;;2.20;;
64601;SDS011;68371;42.630;23.192;2023-05-07T12:23:33;3.37;;;2.10;;
64601;SDS011;68371;42.630;23.192;2023-05-07T12:26:02;3.80;;;2.42;;
64601;SDS011;68371;42.630;23.192;2023-05-07T12:28:29;2.78;;;2.30;;
64601;SDS011;68371;42.630;23.192;2023-05-07T12:30:56;3.35;;;2.50;;
64601;SDS011;68371;42.630;23.192;2023-05-07T12:33:24;7.22;;;2.60;;
64601;SDS011;68371;42.630;23.192;2023-05-07T12:35:53;4.00;;;2.53;;
64601;SDS011;68371;42.630;23.192;2023-05-07T12:38:22;2.85;;;2.53;;
64601;SDS011;68371;42.630;23.192;2023-05-07T12:40:50;6.05;;;2.85;;
64601;SDS011;68371;42.630;23.192;2023-05-07T12:43:20;7.97;;;2.70;;
64601;SDS011;68371;42.630;23.192;2023-05-07T12:45:48;6.28;;;2.72;;
64601;SDS011;68371;42.630;23.192;2023-05-07T12:48:16;4.15;;;2.60;;
64601;SDS011;68371;42.630;23.192;2023-05-07T12:50:44;4.22;;;2.85;;
64601;SDS011;68371;42.630;23.192;2023-05-07T12:53:11;3.35;;;2.50;;
64601;SDS011;68371;42.630;23.192;2023-05-07T12:55:41;3.83;;;2.33;;
64601;SDS011;68371;42.630;23.192;2023-05-07T12:58:14;3.00;;;2.15;;
64601;SDS011;68371;42.630;23.192;2023-05-07T13:00:42;2.90;;;2.40;;
64601;SDS011;68371;42.630;23.192;2023-05-07T13:03:09;11.35;;;2.80;;
64601;SDS011;68371;42.630;23.192;2023-05-07T13:05:36;5.47;;;2.50;;
64601;SDS011;68371;42.630;23.192;2023-05-07T13:08:03;4.15;;;2.67;;
64601;SDS011;68371;42.630;23.192;2023-05-07T13:10:30;6.45;;;2.47;;
64601;SDS011;68371;42.630;23.192;2023-05-07T13:12:59;5.07;;;2.60;;
64601;SDS011;68371;42.630;23.192;2023-05-07T13:15:25;6.80;;;2.50;;
64601;SDS011;68371;42.630;23.192;2023-05-07T13:17:52;2.92;;;2.40;;
64601;SDS011;68371;42.630;23.192;2023-05-07T13:20:18;3.80;;;2.30;;
64601;SDS011;68371;42.630;23.192;2023-05-07T13:22:46;4.72;;;2.13;;
64601;SDS011;68371;42.630;23.192;2023-05-07T13:25:13;3.15;;;2.40;;
64601;SDS011;68371;42.630;23.192;2023-05-07T13:27:40;4.90;;;2.38;;
64601;SDS011;68371;42.630;23.192;2023-05-07T13:30:08;5.97;;;4.22;;
64601;SDS011;68371;42.630;23.192;2023-05-07T13:32:35;8.93;;;3.13;;
64601;SDS011;68371;42.630;23.192;2023-05-07T13:35:02;13.55;;;2.55;;
64601;SDS011;68371;42.630;23.192;2023-05-07T13:37:29;6.15;;;2.58;;
64601;SDS011;68371;42.630;23.192;2023-05-07T13:39:56;9.20;;;3.17;;
64601;SDS011;68371;42.630;23.192;2023-05-07T13:42:22;5.85;;;3.05;;
64601;SDS011;68371;42.630;23.192;2023-05-07T13:44:49;6.35;;;2.58;;
64601;SDS011;68371;42.630;23.192;2023-05-07T13:47:17;4.00;;;2.30;;
64601;SDS011;68371;42.630;23.192;2023-05-07T13:49:44;10.20;;;2.75;;
64601;SDS011;68371;42.630;23.192;2023-05-07T13:52:11;6.07;;;2.40;;
64601;SDS011;68371;42.630;23.192;2023-05-07T13:54:38;4.63;;;2.63;;
64601;SDS011;68371;42.630;23.192;2023-05-07T13:57:05;6.85;;;2.38;;
64601;SDS011;68371;42.630;23.192;2023-05-07T13:59:32;5.15;;;2.70;;
64601;SDS011;68371;42.630;23.192;2023-05-07T14:01:59;4.43;;;2.50;;
64601;SDS011;68371;42.630;23.192;2023-05-07T14:04:27;3.63;;;2.28;;
64601;SDS011;68371;42.630;23.192;2023-05-07T14:06:54;18.20;;;3.03;;
64601;SDS011;68371;42.630;23.192;2023-05-07T14:09:21;3.88;;;2.50;;
64601;SDS011;68371;42.630;23.192;2023-05-07T14:11:47;4.38;;;2.30;;
64601;SDS011;68371;42.630;23.192;2023-05-07T14:14:16;3.85;;;2.08;;
64601;SDS011;68371;42.630;23.192;2023-05-07T14:16:43;3.33;;;2.40;;
64601;SDS011;68371;42.630;23.192;2023-05-07T14:19:10;4.15;;;2.75;;
64601;SDS011;68371;42.630;23.192;2023-05-07T14:21:38;3.08;;;2.40;;
64601;SDS011;68371;42.630;23.192;2023-05-07T14:24:05;4.32;;;2.30;;
64601;SDS011;68371;42.630;23.192;2023-05-07T14:26:33;4.15;;;2.47;;
64601;SDS011;68371;42.630;23.192;2023-05-07T14:28:59;3.75;;;2.47;;
64601;SDS011;68371;42.630;23.192;2023-05-07T14:31:26;2.70;;;2.17;;
64601;SDS011;68371;42.630;23.192;2023-05-07T14:33:53;3.20;;;2.40;;
64601;SDS011;68371;42.630;23.192;2023-05-07T14:36:22;4.43;;;2.40;;
64601;SDS011;68371;42.630;23.192;2023-05-07T14:38:52;5.50;;;2.42;;
64601;SDS011;68371;42.630;23.192;2023-05-07T14:41:21;6.37;;;2.40;;